GMTA

Cherif Al Idrissi Airport

Al Hoceima, Morocco
METAR GMTA 190900Z 10002KT 9999 FEW016 SCT030 BKN080 18/13 Q1010 NOSIG
Observed Flight Rules
Oct-19 @ 09:00 UTC (53 minutes ago) Visual Flight Rules
Wind Visibility Clouds
100° at 2 knots 10,000+ meters
  • Few at 1,600' AGL
  • Scattered at 3,000' AGL
  • Broken at 8,000' AGL
Temperatures Readings
Current 18°C / 64°F
Dewpoint 13°C / 55°F
Humidity 73%
Altimeter 29.82" Hg
Pressure 1010 hPa
Elevation 14
METAR GMTA 190900Z 10002KT 9999 FEW016 SCT030 BKN080 18/13 Q1010 NOSIG
Observed Flight Rules
Oct-19 @ 09:00 UTC
(53 minutes ago)
VFR
Wind Visibility
100° at 2 knots 10,000+ meters
Clouds
  • Few at 1,600' AGL
  • Scattered at 3,000' AGL
  • Broken at 8,000' AGL
Temperature Dewpoint
18°C / 64°F 13°C / 55°F
Humidity Altimeter Pressure
73% 29.82" Hg 1010 hPa